createdAt,value
2022-11-25T00:00:27.043Z,40.30
2022-11-25T00:02:56.573Z,39.78
2022-11-25T00:05:18.465Z,41.08
2022-11-25T00:10:28.486Z,37.90
2022-11-25T00:12:56.234Z,40.28
2022-11-25T00:15:42.613Z,41.83
2022-11-25T00:21:11.649Z,42.35
2022-11-25T00:23:41.685Z,42.17
2022-11-25T00:29:01.180Z,38.47
2022-11-25T00:34:18.703Z,39.95
2022-11-25T00:36:42.944Z,39.03
2022-11-25T00:42:28.452Z,38.05
2022-11-25T00:47:54.654Z,40.53
2022-11-25T00:53:19.559Z,40.78
2022-11-25T00:58:44.847Z,38.08
2022-11-25T01:01:24.315Z,36.97
2022-11-25T01:03:39.877Z,40.05
2022-11-25T01:05:55.881Z,39.60
2022-11-25T01:07:59.762Z,39.55
2022-11-25T01:10:01.656Z,33.97
2022-11-25T01:12:09.668Z,36.67
2022-11-25T01:14:34.859Z,32.00
2022-11-25T01:16:55.322Z,35.97
2022-11-25T01:19:22.105Z,35.22
2022-11-25T01:22:01.101Z,34.20
2022-11-25T01:27:24.825Z,36.67
2022-11-25T01:30:02.842Z,34.05
2022-11-25T01:32:21.990Z,33.50
2022-11-25T01:35:04.560Z,35.10
2022-11-25T01:37:12.500Z,35.00
2022-11-25T01:39:22.152Z,35.78
2022-11-25T01:41:32.133Z,34.03
2022-11-25T01:47:23.674Z,36.47
2022-11-25T01:49:57.296Z,36.15
2022-11-25T01:52:32.436Z,37.88
2022-11-25T01:54:49.292Z,36.38
2022-11-25T01:57:06.888Z,39.40
2022-11-25T01:59:47.292Z,38.70
2022-11-25T02:02:00.890Z,39.47
2022-11-25T02:04:16.573Z,38.08
2022-11-25T02:06:32.541Z,39.40
2022-11-25T02:08:50.233Z,43.92
2022-11-25T02:10:54.403Z,46.38
2022-11-25T02:13:10.577Z,48.13
2022-11-25T02:15:24.662Z,41.00
2022-11-25T02:17:28.856Z,42.00
2022-11-25T02:20:05.213Z,43.17
2022-11-25T02:22:59.991Z,46.88
2022-11-25T02:25:16.784Z,47.88
2022-11-25T02:27:21.700Z,47.35
2022-11-25T02:29:44.535Z,48.90
2022-11-25T02:31:50.814Z,48.05
2022-11-25T02:34:05.996Z,48.97
2022-11-25T02:36:20.620Z,51.35
2022-11-25T02:38:57.601Z,50.15
2022-11-25T02:41:43.820Z,49.13
2022-11-25T02:44:02.716Z,47.22
2022-11-25T02:49:26.965Z,47.03
2022-11-25T02:52:22.840Z,49.55
2022-11-25T02:57:46.007Z,47.70
2022-11-25T03:03:04.045Z,43.28
2022-11-25T03:05:06.185Z,45.33
2022-11-25T03:07:39.621Z,43.88
2022-11-25T03:09:57.371Z,43.70
2022-11-25T03:12:25.207Z,40.53
2022-11-25T03:17:42.704Z,39.80
2022-11-25T03:23:00.250Z,39.88
2022-11-25T03:25:48.840Z,39.08
2022-11-25T03:28:19.370Z,40.97
2022-11-25T03:30:59.808Z,39.03
2022-11-25T03:33:38.355Z,41.25
2022-11-25T03:38:55.741Z,42.70
2022-11-25T03:44:15.473Z,45.83
2022-11-25T03:46:48.516Z,41.08
2022-11-25T03:49:12.352Z,38.40
2022-11-25T03:51:36.657Z,41.70
2022-11-25T03:56:59.875Z,38.92
2022-11-25T04:02:23.228Z,35.55
2022-11-25T04:05:05.722Z,38.92
2022-11-25T04:07:46.398Z,42.88
2022-11-25T04:09:49.373Z,43.50
2022-11-25T04:12:53.385Z,42.47
2022-11-25T04:15:10.845Z,44.28
2022-11-25T04:17:54.045Z,40.47
2022-11-25T04:20:15.845Z,40.35
2022-11-25T04:25:23.928Z,41.75
2022-11-25T04:27:31.998Z,39.58
2022-11-25T04:30:02.738Z,41.63
2022-11-25T04:32:36.909Z,39.03
2022-11-25T04:35:30.401Z,40.13
2022-11-25T04:38:24.785Z,43.00
2022-11-25T04:41:13.856Z,42.90
2022-11-25T04:46:41.134Z,43.38
2022-11-25T04:49:12.943Z,42.75
2022-11-25T04:51:15.965Z,42.47
2022-11-25T04:53:28.057Z,45.60
2022-11-25T04:55:42.582Z,43.78
2022-11-25T04:58:41.865Z,45.08
2022-11-25T05:00:43.734Z,40.17
2022-11-25T05:06:08.891Z,44.45
2022-11-25T05:08:30.792Z,47.08
2022-11-25T05:13:05.334Z,39.78
2022-11-25T05:15:09.896Z,42.08
2022-11-25T05:17:43.476Z,44.83
2022-11-25T05:20:07.895Z,41.40
2022-11-25T05:22:44.807Z,47.30
2022-11-25T05:28:08.677Z,47.13
2022-11-25T05:30:36.106Z,43.33
2022-11-25T05:32:42.042Z,42.80
2022-11-25T05:35:08.923Z,43.45
2022-11-25T05:41:05.814Z,42.53
2022-11-25T05:43:07.824Z,44.50
2022-11-25T05:45:19.025Z,41.40
2022-11-25T05:47:55.267Z,45.58
2022-11-25T05:50:20.924Z,44.28
2022-11-25T05:52:40.018Z,46.72
2022-11-25T05:58:06.403Z,45.50
2022-11-25T06:00:36.148Z,46.05
2022-11-25T06:03:18.588Z,94.63
2022-11-25T06:08:51.410Z,45.05
2022-11-25T06:11:19.035Z,45.60
2022-11-25T06:16:42.704Z,46.50
2022-11-25T06:19:11.285Z,44.75
2022-11-25T06:21:29.522Z,40.63
2022-11-25T06:23:39.925Z,47.13
2022-11-25T06:26:43.753Z,41.28
2022-11-25T06:29:15.447Z,40.20
2022-11-25T06:31:22.807Z,41.40
2022-11-25T06:33:57.841Z,49.30
2022-11-25T06:35:59.955Z,40.42
2022-11-25T06:38:26.688Z,43.10
2022-11-25T06:41:00.500Z,44.63
2022-11-25T06:46:25.560Z,38.50
2022-11-25T06:48:40.514Z,38.60
2022-11-25T06:51:32.910Z,40.92
2022-11-25T06:56:26.388Z,41.38
2022-11-25T06:58:36.524Z,40.03
2022-11-25T07:04:03.519Z,45.20
2022-11-25T07:09:26.636Z,45.28
2022-11-25T07:11:53.597Z,46.78
2022-11-25T07:17:16.724Z,46.63
2022-11-25T07:22:40.176Z,43.42
2022-11-25T07:28:04.141Z,47.25
2022-11-25T07:31:09.829Z,46.13
2022-11-25T07:33:23.234Z,41.97
2022-11-25T07:36:01.720Z,38.88
2022-11-25T07:45:00.577Z,48.83
2022-11-25T07:47:09.900Z,44.58
2022-11-25T07:49:26.694Z,47.00
2022-11-25T07:51:37.385Z,45.17
2022-11-25T07:57:01.090Z,47.25
2022-11-25T07:59:57.901Z,46.72
2022-11-25T08:05:21.793Z,46.77
2022-11-25T08:07:56.810Z,49.70
2022-11-25T08:13:40.163Z,43.65
2022-11-25T08:19:18.907Z,47.03
2022-11-25T08:21:30.455Z,47.80
2022-11-25T08:26:55.183Z,43.65
2022-11-25T08:29:32.227Z,42.80
2022-11-25T08:32:14.984Z,45.08
2022-11-25T08:34:42.385Z,42.38
2022-11-25T08:39:59.927Z,44.40
2022-11-25T08:42:18.179Z,43.80
2022-11-25T08:47:41.913Z,46.80
2022-11-25T08:50:29.369Z,47.85
2022-11-25T08:53:16.461Z,47.20
2022-11-25T08:55:37.480Z,47.65
2022-11-25T08:58:16.024Z,48.78
2022-11-25T09:00:21.079Z,43.08
2022-11-25T09:02:25.467Z,43.80
2022-11-25T09:04:32.210Z,45.22
2022-11-25T09:06:36.095Z,43.05
2022-11-25T09:09:03.529Z,40.72
2022-11-25T09:11:31.280Z,45.65
2022-11-25T09:13:59.679Z,46.20
2022-11-25T09:16:06.276Z,40.67
2022-11-25T09:18:22.079Z,42.90
2022-11-25T09:20:32.489Z,41.47
2022-11-25T09:25:58.025Z,43.97
2022-11-25T09:28:07.584Z,41.70
2022-11-25T09:33:25.085Z,38.08
2022-11-25T09:38:48.812Z,40.47
2022-11-25T09:44:36.813Z,43.40
2022-11-25T09:47:29.098Z,40.47
2022-11-25T09:55:39.736Z,42.58
2022-11-25T09:58:09.525Z,39.17
2022-11-25T10:00:41.358Z,35.75
2022-11-25T10:03:01.683Z,30.95
2022-11-25T10:05:29.079Z,35.33
2022-11-25T10:07:56.843Z,37.13
2022-11-25T10:13:29.294Z,35.25
2022-11-25T10:16:33.385Z,34.80
2022-11-25T10:19:03.145Z,31.17
2022-11-25T10:21:09.774Z,8.10
2022-11-25T10:23:50.136Z,12.82
2022-11-25T10:29:13.920Z,6.88
2022-11-25T10:32:15.848Z,5.38
2022-11-25T10:37:43.494Z,5.88
2022-11-25T10:39:51.331Z,6.00
2022-11-25T10:42:05.050Z,8.88
2022-11-25T10:47:49.504Z,6.40
2022-11-25T10:53:27.273Z,7.90
2022-11-25T10:56:10.856Z,7.95
2022-11-25T10:58:37.615Z,7.28
2022-11-25T11:01:18.542Z,8.65
2022-11-25T11:13:33.414Z,10.38
2022-11-25T11:16:00.975Z,8.93
2022-11-25T11:21:32.084Z,8.63
2022-11-25T11:24:29.020Z,14.43
2022-11-25T11:26:43.446Z,17.40
2022-11-25T11:29:09.677Z,7.50
2022-11-25T11:31:44.829Z,7.45
2022-11-25T11:34:41.848Z,6.63
2022-11-25T11:40:25.592Z,7.32
2022-11-25T11:43:11.093Z,11.13
2022-11-25T11:48:53.729Z,11.15
2022-11-25T11:54:26.086Z,7.82
2022-11-25T11:57:18.596Z,6.85
2022-11-25T11:59:55.198Z,9.68
2022-11-25T12:05:22.422Z,10.32
2022-11-25T12:11:06.334Z,9.85
2022-11-25T12:13:45.772Z,11.30
2022-11-25T12:16:30.268Z,11.95
2022-11-25T12:19:10.360Z,10.07
2022-11-25T12:22:20.811Z,6.72
2022-11-25T12:25:10.372Z,20.48
2022-11-25T12:30:45.682Z,9.38
2022-11-25T12:33:24.565Z,8.75
2022-11-25T12:39:25.646Z,6.63
2022-11-25T12:45:33.191Z,9.60
2022-11-25T12:48:11.174Z,9.13
2022-11-25T12:50:36.254Z,5.90
2022-11-25T12:56:02.912Z,8.43
2022-11-25T13:02:10.271Z,9.13
2022-11-25T13:11:19.925Z,9.63
2022-11-25T13:13:39.849Z,8.35
2022-11-25T13:15:48.764Z,9.48
2022-11-25T13:18:34.733Z,6.68
2022-11-25T13:20:44.384Z,6.28
2022-11-25T13:23:26.798Z,8.88
2022-11-25T13:26:14.758Z,19.10
2022-11-25T13:32:00.641Z,36.38
2022-11-25T13:34:35.167Z,39.50
2022-11-25T13:37:37.747Z,34.78
2022-11-25T13:46:07.698Z,34.10
2022-11-25T13:48:51.942Z,34.13
2022-11-25T13:51:49.685Z,35.70
2022-11-25T13:54:17.900Z,34.88
2022-11-25T13:56:43.437Z,36.97
2022-11-25T13:59:32.815Z,37.53
2022-11-25T14:01:55.063Z,41.15
2022-11-25T14:07:35.466Z,37.78
2022-11-25T14:13:30.883Z,34.05
2022-11-25T14:15:47.303Z,37.65
2022-11-25T14:19:11.958Z,40.42
2022-11-25T14:21:06.070Z,40.47
2022-11-25T14:23:48.670Z,37.58
2022-11-25T14:26:47.815Z,39.40
2022-11-25T14:29:38.656Z,38.65
2022-11-25T14:31:54.580Z,39.05
2022-11-25T14:34:27.547Z,37.28
2022-11-25T14:36:41.839Z,41.13
2022-11-25T14:39:06.284Z,39.33
2022-11-25T14:41:23.548Z,39.40
2022-11-25T14:43:39.747Z,38.00
2022-11-25T14:45:41.818Z,39.25
2022-11-25T14:47:43.742Z,37.75
2022-11-25T14:50:00.135Z,39.72
2022-11-25T14:52:27.216Z,41.78
2022-11-25T14:54:29.312Z,41.72
2022-11-25T14:56:39.435Z,45.08
2022-11-25T14:58:53.409Z,40.88
2022-11-25T15:01:04.676Z,44.92
2022-11-25T15:03:18.295Z,50.60
2022-11-25T15:05:36.432Z,45.75
2022-11-25T15:07:42.655Z,43.88
2022-11-25T15:09:45.593Z,41.58
2022-11-25T15:11:50.946Z,45.00
2022-11-25T15:14:06.506Z,41.75
2022-11-25T15:16:16.395Z,45.90
2022-11-25T15:18:22.106Z,44.10
2022-11-25T15:20:28.056Z,44.30
2022-11-25T15:22:30.034Z,46.63
2022-11-25T15:24:48.880Z,50.00
2022-11-25T15:26:56.752Z,47.60
2022-11-25T15:29:01.401Z,46.78
2022-11-25T15:31:10.585Z,48.50
2022-11-25T15:33:12.561Z,49.22
2022-11-25T15:35:26.376Z,48.22
2022-11-25T15:37:28.740Z,44.88
2022-11-25T15:39:31.702Z,45.53
2022-11-25T15:41:35.899Z,42.67
2022-11-25T15:43:42.196Z,42.25
2022-11-25T15:45:46.749Z,42.80
2022-11-25T15:47:48.974Z,44.53
2022-11-25T15:50:00.958Z,42.80
2022-11-25T15:52:17.107Z,47.95
2022-11-25T15:54:27.141Z,49.08
2022-11-25T15:56:32.952Z,53.72
2022-11-25T15:58:35.256Z,50.30
2022-11-25T16:00:38.713Z,54.90
2022-11-25T16:02:43.528Z,52.30
2022-11-25T16:04:45.500Z,46.90
2022-11-25T16:06:59.646Z,47.35
2022-11-25T16:09:17.985Z,51.60
2022-11-25T16:11:21.542Z,49.88
2022-11-25T16:13:23.556Z,49.95
2022-11-25T16:15:51.057Z,48.03
2022-11-25T16:18:02.789Z,53.45
2022-11-25T16:20:20.300Z,53.33
2022-11-25T16:22:23.389Z,49.53
2022-11-25T16:24:47.978Z,52.70
2022-11-25T16:27:17.132Z,49.03
2022-11-25T16:29:47.559Z,55.25
2022-11-25T16:31:50.454Z,49.78
2022-11-25T16:34:19.922Z,54.22
2022-11-25T16:36:22.066Z,54.10
2022-11-25T16:38:29.784Z,51.65
2022-11-25T16:43:57.108Z,53.53
2022-11-25T16:46:45.393Z,52.05
2022-11-25T16:49:35.077Z,53.03
2022-11-25T16:52:16.369Z,57.25
2022-11-25T16:54:25.760Z,59.17
2022-11-25T16:56:44.664Z,67.28
2022-11-25T16:58:58.481Z,57.25
2022-11-25T17:01:54.349Z,62.65
2022-11-25T17:03:59.366Z,57.80
2022-11-25T17:06:34.867Z,54.75
2022-11-25T17:08:45.452Z,61.47
2022-11-25T17:11:00.028Z,61.88
2022-11-25T17:13:43.816Z,67.47
2022-11-25T17:15:51.373Z,64.78
2022-11-25T17:18:13.971Z,68.28
2022-11-25T17:20:53.654Z,60.70
2022-11-25T17:23:17.954Z,54.42
2022-11-25T17:26:00.447Z,59.45
2022-11-25T17:29:00.709Z,56.15
2022-11-25T17:31:26.407Z,55.53
2022-11-25T17:40:52.685Z,56.85
2022-11-25T17:45:33.458Z,64.93
2022-11-25T17:47:43.495Z,58.10
2022-11-25T17:49:53.527Z,63.65
2022-11-25T17:52:47.445Z,69.05
2022-11-25T17:55:11.757Z,73.18
2022-11-25T17:58:10.595Z,74.15
2022-11-25T18:00:22.390Z,71.43
2022-11-25T18:02:32.216Z,74.68
2022-11-25T18:04:35.817Z,69.97
2022-11-25T18:09:53.536Z,70.35
2022-11-25T18:12:41.088Z,68.18
2022-11-25T18:14:44.343Z,67.35
2022-11-25T18:16:48.286Z,70.72
2022-11-25T18:18:51.613Z,69.57
2022-11-25T18:21:50.089Z,73.10
2022-11-25T18:24:08.646Z,78.55
2022-11-25T18:26:55.522Z,80.75
2022-11-25T18:29:04.983Z,72.50
2022-11-25T18:31:46.307Z,78.75
2022-11-25T18:33:54.308Z,78.13
2022-11-25T18:36:07.222Z,71.50
2022-11-25T18:38:31.081Z,76.18
2022-11-25T18:40:40.893Z,81.32
2022-11-25T18:42:49.826Z,75.70
2022-11-25T18:44:56.899Z,78.32
2022-11-25T18:47:12.754Z,80.22
2022-11-25T18:49:17.131Z,83.78
2022-11-25T18:51:32.062Z,81.50
2022-11-25T18:53:51.616Z,77.50
2022-11-25T18:56:17.763Z,72.53
2022-11-25T18:58:36.832Z,74.18
2022-11-25T19:01:11.970Z,77.25
2022-11-25T19:03:27.746Z,78.20
2022-11-25T19:05:34.420Z,83.88
2022-11-25T19:07:39.828Z,81.95
2022-11-25T19:09:58.660Z,83.45
2022-11-25T19:12:06.769Z,82.78
2022-11-25T19:14:16.398Z,88.80
2022-11-25T19:19:39.939Z,80.18
2022-11-25T19:21:44.658Z,80.85
2022-11-25T19:24:16.645Z,82.43
2022-11-25T19:26:46.350Z,78.00
2022-11-25T19:29:03.419Z,86.05
2022-11-25T19:31:09.515Z,85.25
2022-11-25T19:33:32.819Z,88.88
2022-11-25T19:36:04.303Z,85.22
2022-11-25T19:38:17.357Z,85.75
2022-11-25T19:43:41.734Z,93.45
2022-11-25T19:46:52.740Z,95.00
2022-11-25T19:52:22.260Z,99.13
2022-11-25T19:54:55.701Z,91.28
2022-11-25T19:57:29.011Z,97.75
2022-11-25T20:00:12.893Z,97.53
2022-11-25T20:02:34.079Z,92.95
2022-11-25T20:04:58.280Z,101.63
2022-11-25T20:07:13.404Z,104.20
2022-11-25T20:09:44.206Z,92.90
2022-11-25T20:12:10.628Z,97.35
2022-11-25T20:14:15.687Z,97.22
2022-11-25T20:16:52.261Z,106.63
2022-11-25T20:19:04.394Z,93.57
2022-11-25T20:21:47.062Z,93.68
2022-11-25T20:23:58.727Z,98.35
2022-11-25T20:28:40.775Z,94.40
2022-11-25T20:31:14.809Z,102.75
2022-11-25T20:33:49.273Z,99.72
2022-11-25T20:36:11.198Z,91.93
2022-11-25T20:38:20.219Z,103.53
2022-11-25T20:43:53.904Z,100.60
2022-11-25T20:46:07.028Z,101.13
2022-11-25T20:48:19.985Z,93.03
2022-11-25T20:50:35.658Z,98.15
2022-11-25T20:52:59.867Z,98.38
2022-11-25T20:58:31.710Z,101.63
2022-11-25T21:00:59.106Z,100.15
2022-11-25T21:03:27.021Z,97.40
2022-11-25T21:05:30.327Z,102.18
2022-11-25T21:07:33.399Z,94.88
2022-11-25T21:09:36.700Z,96.55
2022-11-25T21:11:40.843Z,90.60
2022-11-25T21:13:43.345Z,102.15
2022-11-25T21:15:49.663Z,102.90
2022-11-25T21:17:52.354Z,104.13
2022-11-25T21:19:55.751Z,103.22
2022-11-25T21:22:05.500Z,98.70
2022-11-25T21:24:12.932Z,102.00
2022-11-25T21:26:27.715Z,109.70
2022-11-25T21:28:36.512Z,104.18
2022-11-25T21:30:40.437Z,92.63
2022-11-25T21:32:42.344Z,96.97
2022-11-25T21:34:44.471Z,98.10
2022-11-25T21:36:48.698Z,90.88
2022-11-25T21:38:55.838Z,88.40
2022-11-25T21:40:59.190Z,86.18
2022-11-25T21:43:01.601Z,91.07
2022-11-25T21:45:03.866Z,86.47
2022-11-25T21:47:18.374Z,89.45
2022-11-25T21:49:20.304Z,94.45
2022-11-25T21:51:24.484Z,87.25
2022-11-25T21:53:36.994Z,87.85
2022-11-25T21:55:40.385Z,87.95
2022-11-25T21:57:42.975Z,85.72
2022-11-25T21:59:47.082Z,90.25
2022-11-25T22:01:49.141Z,89.28
2022-11-25T22:03:51.351Z,87.60
2022-11-25T22:05:53.209Z,83.78
2022-11-25T22:07:55.369Z,90.25
2022-11-25T22:09:58.285Z,85.15
2022-11-25T22:12:00.272Z,86.70
2022-11-25T22:14:06.790Z,89.93
2022-11-25T22:16:15.743Z,106.47
2022-11-25T22:18:22.064Z,125.25
2022-11-25T22:20:33.603Z,121.85
2022-11-25T22:22:35.565Z,123.47
2022-11-25T22:24:37.867Z,134.10
2022-11-25T22:26:41.002Z,118.50
2022-11-25T22:28:43.893Z,113.45
2022-11-25T22:30:56.449Z,117.50
2022-11-25T22:33:02.551Z,119.95
2022-11-25T22:35:17.746Z,117.90
2022-11-25T22:37:22.337Z,126.55
2022-11-25T22:39:26.530Z,119.25
2022-11-25T22:41:29.514Z,130.90
2022-11-25T22:43:37.784Z,125.95
2022-11-25T22:45:39.740Z,118.85
2022-11-25T22:47:45.197Z,122.07
2022-11-25T22:49:48.843Z,125.93
2022-11-25T22:51:50.822Z,123.15
2022-11-25T22:53:54.710Z,131.18
2022-11-25T22:56:10.379Z,125.32
2022-11-25T22:58:14.579Z,129.52
2022-11-25T23:00:24.391Z,136.02
2022-11-25T23:02:34.351Z,131.93
2022-11-25T23:04:37.515Z,128.65
2022-11-25T23:06:40.583Z,133.13
2022-11-25T23:08:43.474Z,147.98
2022-11-25T23:10:47.539Z,148.07
2022-11-25T23:12:53.626Z,146.18
2022-11-25T23:14:55.416Z,138.82
2022-11-25T23:16:58.412Z,129.52
2022-11-25T23:19:00.336Z,153.05
2022-11-25T23:21:03.412Z,124.22
2022-11-25T23:23:11.344Z,124.80
2022-11-25T23:25:21.366Z,124.90
2022-11-25T23:27:35.247Z,134.68
2022-11-25T23:29:38.464Z,116.43
2022-11-25T23:31:42.888Z,104.47
2022-11-25T23:33:51.163Z,115.50
2022-11-25T23:35:53.518Z,122.70
2022-11-25T23:37:58.910Z,124.13
2022-11-25T23:40:00.897Z,108.93
2022-11-25T23:42:04.067Z,110.05
2022-11-25T23:44:32.192Z,112.47
2022-11-25T23:46:36.772Z,100.03
2022-11-25T23:48:42.522Z,100.55
2022-11-25T23:51:00.519Z,92.88
2022-11-25T23:53:07.773Z,95.47
2022-11-25T23:55:16.529Z,100.07
2022-11-25T23:57:22.077Z,99.40
2022-11-25T23:59:31.324Z,104.55
